Погода Тлапа-де-Комонфортна неделю

Герреро, Мексика

04 - 10 марта
  • 04марта
    Сегодня
    +14°
    +34°
    Небольшая облачность
    ВремяПогодаТемператураВлажностьДавлениеВетер, м/сВероятность осадков
    00:00Практически безоблачно+21°C54 %664 мм1.6 м/с2 %
    03:00Ясно и безоблачно+19°C55 %663 мм1.4 м/с2 %
    06:00Небольшая облачность+16°C58 %662 мм1.1 м/с2 %
    09:00Облачно с прояснениями+21°C36 %665 мм0.3 м/с2 %
    12:00Облачно с прояснениями+30°C23 %665 мм0.7 м/с2 %
    15:00Небольшая облачность+34°C21 %663 мм2.8 м/с2 %
    18:00Облачно с прояснениями+29°C32 %662 мм4.7 м/с2 %
    21:00Облачно с прояснениями+23°C49 %663 мм2.1 м/с2 %
  • 05марта
    Вторник
    +15°
    +35°
    Ясно и безоблачно
    ВремяПогодаТемператураВлажностьДавлениеВетер, м/сВероятность осадков
    00:00Ясно и безоблачно+21°C53 %663 мм1.4 м/с2 %
    03:00Ясно и безоблачно+19°C59 %661 мм0.9 м/с2 %
    06:00Ясно и безоблачно+16°C63 %661 мм0.7 м/с2 %
    09:00Ясно и безоблачно+21°C37 %663 мм0.3 м/с2 %
    12:00Ясно и безоблачно+30°C20 %664 мм1.4 м/с2 %
    15:00Ясно и безоблачно+35°C16 %662 мм0.8 м/с2 %
    18:00Ясно и безоблачно+30°C38 %662 мм4.5 м/с2 %
    21:00Ясно и безоблачно+24°C58 %662 мм1.9 м/с2 %
  • 06марта
    Среда
    +15°
    +35°
    Ясно и безоблачно
    ВремяПогодаТемператураВлажностьДавлениеВетер, м/сВероятность осадков
    00:00Ясно и безоблачно+21°C64 %662 мм1.4 м/с2 %
    03:00Ясно и безоблачно+19°C67 %661 мм1.4 м/с2 %
    06:00Ясно и безоблачно+17°C59 %660 мм1.2 м/с2 %
    09:00Ясно и безоблачно+22°C35 %663 мм0.7 м/с2 %
    12:00Ясно и безоблачно+31°C22 %664 мм0.6 м/с2 %
    15:00Ясно и безоблачно+35°C22 %662 мм3.9 м/с2 %
    18:00Ясно и безоблачно+29°C42 %662 мм4.7 м/с2 %
    21:00Ясно и безоблачно+24°C64 %663 мм1.8 м/с2 %
  • 07марта
    Четверг
    +14°
    +34°
    Ясно и безоблачно
    ВремяПогодаТемператураВлажностьДавлениеВетер, м/сВероятность осадков
    00:00Ясно и безоблачно+21°C69 %663 мм1.3 м/с2 %
    03:00Ясно и безоблачно+20°C68 %661 мм1.1 м/с2 %
    06:00Ясно и безоблачно+17°C67 %661 мм0.5 м/с2 %
    09:00Ясно и безоблачно+22°C41 %663 мм0.5 м/с2 %
    12:00Ясно и безоблачно+32°C21 %664 мм0.4 м/с2 %
    15:00Ясно и безоблачно+34°C18 %663 мм5.5 м/с2 %
    18:00Ясно и безоблачно+30°C29 %663 мм4.6 м/с2 %
    21:00Ясно и безоблачно+23°C54 %663 мм1.9 м/с2 %
  • 08марта
    Пятница
    +14°
    +36°
    Ясно и безоблачно
    ВремяПогодаТемператураВлажностьДавлениеВетер, м/сВероятность осадков
    00:00Ясно и безоблачно+20°C52 %663 мм1.4 м/с2 %
    03:00Ясно и безоблачно+18°C51 %662 мм1.6 м/с2 %
    06:00Ясно и безоблачно+14°C44 %661 мм0.8 м/с2 %
    09:00Ясно и безоблачно+20°C21 %664 мм0.3 м/с2 %
    12:00Ясно и безоблачно+31°C7 %664 мм0.5 м/с2 %
    15:00Ясно и безоблачно+35°C12 %663 мм4.5 м/с2 %
    18:00Ясно и безоблачно+30°C34 %662 мм4.5 м/с2 %
    21:00Ясно и безоблачно+24°C57 %663 мм2.0 м/с2 %
Мы используем cookies
Соглашаюсь